Time;durP1;ratioP1;P1;durP2;ratioP2;P2;SDS_P1;SDS_P2;PMS_P1;PMS_P2;Temp;Humidity;BMP_temperature;BMP_pressure;BME280_temperature;BME280_humidity;BME280_pressure;Samples;Min_cycle;Max_cycle;Signal;HPM_P1;HPM_P2
2023/08/28 00:00:31;;;;;;;3.97;3.53;;;;;;;26.42;52.77;99078.34;4993671;28;20190;-69
2023/08/28 00:02:58;;;;;;;4.70;4.40;;;;;;;26.37;52.48;99081.19;4993268;28;20728;-70
2023/08/28 00:05:25;;;;;;;4.40;4.00;;;;;;;26.32;52.62;99082.09;4993467;28;20214;-69
2023/08/28 00:07:53;;;;;;;6.33;4.23;;;;;;;26.27;53.88;99075.97;5016977;28;20197;-69
2023/08/28 00:10:19;;;;;;;7.20;4.30;;;;;;;26.26;54.42;99069.72;5032750;28;20661;-69
2023/08/28 00:12:46;;;;;;;5.97;4.03;;;;;;;26.23;54.83;99073.06;5024487;28;20217;-69
2023/08/28 00:15:13;;;;;;;4.73;4.43;;;;;;;26.20;55.53;99065.50;5012603;28;20233;-70
2023/08/28 00:17:39;;;;;;;4.40;4.00;;;;;;;26.11;57.26;99063.81;5012715;28;20662;-69
2023/08/28 00:20:08;;;;;;;4.80;4.37;;;;;;;25.90;57.53;99066.16;5012884;28;20681;-69
2023/08/28 00:22:35;;;;;;;12.23;5.10;;;;;;;26.01;57.63;99066.78;5013103;28;20297;-69
2023/08/28 00:25:03;;;;;;;7.73;4.93;;;;;;;25.91;58.76;99066.94;5012677;28;20260;-69
2023/08/28 00:27:30;;;;;;;6.43;4.60;;;;;;;25.94;58.92;99063.66;5012934;28;20210;-68
2023/08/28 00:29:57;;;;;;;4.53;4.13;;;;;;;25.92;59.06;99069.38;5013196;28;20212;-69
2023/08/28 00:32:24;;;;;;;6.47;4.90;;;;;;;25.93;58.78;99064.75;5012689;28;20229;-69
2023/08/28 00:34:50;;;;;;;7.93;4.70;;;;;;;25.94;60.03;99071.81;5012690;28;20244;-69
2023/08/28 00:37:17;;;;;;;5.00;4.70;;;;;;;25.94;60.19;99066.38;5006751;28;20190;-70
2023/08/28 00:39:44;;;;;;;5.03;4.63;;;;;;;25.94;60.52;99059.03;4993030;28;20230;-69
2023/08/28 00:42:12;;;;;;;5.57;4.53;;;;;;;25.95;60.63;99062.53;4993145;28;20191;-70
2023/08/28 00:44:39;;;;;;;5.53;4.63;;;;;;;25.93;61.27;99053.84;4993054;28;20245;-69
2023/08/28 00:47:07;;;;;;;4.90;4.50;;;;;;;25.86;61.77;99059.72;4992931;28;20249;-69
2023/08/28 00:49:34;;;;;;;5.53;4.93;;;;;;;25.86;62.47;99053.47;4992963;28;20235;-69
2023/08/28 00:52:02;;;;;;;5.37;4.67;;;;;;;25.75;63.74;99052.88;4993197;28;20191;-69
2023/08/28 00:54:29;;;;;;;5.70;5.20;;;;;;;25.72;64.09;99048.03;4992882;28;20226;-69
2023/08/28 00:56:56;;;;;;;4.90;4.50;;;;;;;25.73;64.01;99059.75;4994009;28;20206;-69
2023/08/28 00:59:25;;;;;;;5.40;4.80;;;;;;;25.71;64.95;99059.22;5002064;28;20701;-68
2023/08/28 01:01:51;;;;;;;5.67;5.10;;;;;;;25.69;65.11;99054.13;5012454;28;20256;-68
2023/08/28 01:04:18;;;;;;;5.27;4.83;;;;;;;25.68;65.67;99052.47;5012421;28;20202;-69
2023/08/28 01:06:52;;;;;;;7.40;4.73;;;;;;;25.65;66.14;99047.66;5015132;28;20198;-68
2023/08/28 01:09:26;;;;;;;5.87;5.07;;;;;;;25.61;66.74;99046.66;5032089;28;20192;-68
2023/08/28 01:12:03;;;;;;;8.00;4.87;;;;;;;25.61;66.14;99048.56;5032518;28;20257;-68
2023/08/28 01:14:31;;;;;;;8.23;5.37;;;;;;;25.61;66.73;99051.28;5031673;28;20186;-68
2023/08/28 01:17:03;;;;;;;7.37;4.87;;;;;;;25.63;66.43;99049.09;5032059;28;20263;-68
2023/08/28 01:19:35;;;;;;;6.03;5.13;;;;;;;25.67;66.09;99048.16;5022447;28;20201;-68
2023/08/28 01:22:11;;;;;;;8.00;4.83;;;;;;;25.76;64.84;99048.25;5012484;28;20263;-68
2023/08/28 01:24:46;;;;;;;8.00;4.47;;;;;;;25.81;66.29;99050.84;5011844;28;20186;-68
2023/08/28 01:27:16;;;;;;;7.60;5.37;;;;;;;25.84;66.44;99056.47;5012369;28;20193;-68
2023/08/28 01:29:42;;;;;;;5.27;4.77;;;;;;;25.84;65.54;99039.38;5012205;28;20245;-68
2023/08/28 01:32:09;;;;;;;5.67;5.00;;;;;;;25.96;64.51;99047.84;5016605;28;20271;-69
2023/08/28 01:34:36;;;;;;;5.63;4.80;;;;;;;26.02;63.30;99041.97;5031775;28;20235;-69
2023/08/28 01:37:11;;;;;;;4.77;4.43;;;;;;;26.07;62.79;99043.75;5033978;28;20217;-68
2023/08/28 01:39:43;;;;;;;5.60;5.10;;;;;;;26.11;61.96;99044.75;5035485;28;20208;-69
2023/08/28 01:42:11;;;;;;;4.70;4.27;;;;;;;26.12;60.34;99040.91;5035974;28;20189;-69
2023/08/28 01:44:40;;;;;;;4.97;4.57;;;;;;;26.18;59.11;99036.97;5019416;28;20198;-68
2023/08/28 01:47:08;;;;;;;4.33;4.03;;;;;;;26.23;59.29;99043.09;5015387;28;20662;-68
2023/08/28 01:49:34;;;;;;;4.60;4.17;;;;;;;26.29;57.99;99046.53;5015811;28;20259;-69
2023/08/28 01:52:01;;;;;;;4.87;4.47;;;;;;;26.34;57.29;99044.44;5015931;28;20190;-69
2023/08/28 01:54:28;;;;;;;4.53;4.13;;;;;;;26.38;56.42;99044.66;5015438;28;20244;-69
2023/08/28 01:56:54;;;;;;;5.40;4.27;;;;;;;26.39;55.84;99048.97;5015955;28;20288;-69
2023/08/28 01:59:21;;;;;;;4.90;4.50;;;;;;;26.41;55.20;99054.94;5015313;28;20225;-69
2023/08/28 02:01:49;;;;;;;4.23;3.83;;;;;;;26.43;54.51;99048.06;5015442;28;20194;-69
2023/08/28 02:04:16;;;;;;;4.87;4.00;;;;;;;26.45;53.87;99045.81;5015243;28;20194;-69
2023/08/28 02:06:42;;;;;;;4.90;3.83;;;;;;;26.46;52.56;99046.63;5015296;28;20190;-69
2023/08/28 02:09:11;;;;;;;4.30;3.90;;;;;;;26.45;53.23;99034.13;5013505;28;20244;-69
2023/08/28 02:11:37;;;;;;;4.03;3.73;;;;;;;26.44;53.02;99033.31;5015600;28;20281;-69
2023/08/28 02:14:04;;;;;;;4.67;4.17;;;;;;;26.42;51.19;99034.75;5015463;28;20194;-70
2023/08/28 02:16:31;;;;;;;4.10;3.80;;;;;;;26.35;51.40;99029.75;5014763;28;20194;-70
2023/08/28 02:18:59;;;;;;;5.40;4.10;;;;;;;26.34;52.04;99027.31;5015247;28;20225;-69
2023/08/28 02:21:25;;;;;;;4.23;3.80;;;;;;;26.35;52.62;99026.19;5015057;28;20194;-69
2023/08/28 02:23:52;;;;;;;5.80;4.10;;;;;;;26.32;52.53;99022.19;5014959;28;20197;-69
2023/08/28 02:26:18;;;;;;;5.03;3.90;;;;;;;26.30;52.45;99031.78;5014956;28;20248;-69
2023/08/28 02:28:45;;;;;;;5.30;4.27;;;;;;;26.17;51.68;99016.31;5015227;28;20202;-70
2023/08/28 02:31:12;;;;;;;7.50;4.40;;;;;;;26.17;51.15;99024.47;5014818;28;20198;-69
2023/08/28 02:33:38;;;;;;;5.43;4.10;;;;;;;26.03;51.45;99023.69;5004470;28;20281;-69
2023/08/28 02:36:07;;;;;;;4.53;4.17;;;;;;;25.95;51.72;99029.88;4995162;28;20202;-70
2023/08/28 02:38:34;;;;;;;4.77;4.27;;;;;;;25.79;52.62;99026.66;4995119;28;20682;-69
2023/08/28 02:41:05;;;;;;;4.57;4.00;;;;;;;25.73;53.77;99021.66;4995059;28;20654;-69
2023/08/28 02:43:32;;;;;;;3.90;3.60;;;;;;;25.73;54.12;99024.38;4995363;28;20297;-69
2023/08/28 02:45:58;;;;;;;4.80;4.00;;;;;;;25.78;54.32;99025.06;4995257;28;20202;-69
2023/08/28 02:48:25;;;;;;;5.80;4.20;;;;;;;25.84;54.23;99029.28;4994790;28;20198;-70
2023/08/28 02:50:52;;;;;;;5.63;4.50;;;;;;;25.88;53.95;99032.19;4994834;28;20246;-69
2023/08/28 02:53:20;;;;;;;5.80;4.17;;;;;;;25.85;52.65;99038.25;4995192;28;20195;-69
2023/08/28 02:56:12;;;;;;;4.73;4.40;;;;;;;25.74;53.30;99034.94;4994708;28;20195;-69
2023/08/28 02:58:39;;;;;;;7.17;4.70;;;;;;;25.63;53.78;99038.22;5004475;28;20194;-69
2023/08/28 03:01:05;;;;;;;7.23;4.20;;;;;;;25.56;53.78;99032.34;5014518;28;20252;-69
2023/08/28 03:03:33;;;;;;;10.23;4.47;;;;;;;25.53;54.24;99032.97;5014594;28;20256;-69
2023/08/28 03:06:01;;;;;;;6.17;4.33;;;;;;;25.52;54.44;99028.63;5014086;28;20285;-69
2023/08/28 03:08:29;;;;;;;9.33;4.77;;;;;;;25.39;53.88;99026.75;5030942;28;20743;-69
2023/08/28 03:10:56;;;;;;;9.50;4.63;;;;;;;25.27;55.10;99015.53;5034255;28;20258;-69
2023/08/28 03:13:23;;;;;;;5.80;4.27;;;;;;;25.17;54.83;99023.88;5034170;28;20267;-68
2023/08/28 03:15:49;;;;;;;5.23;4.73;;;;;;;25.11;55.28;99025.09;5033754;28;20193;-69
2023/08/28 03:18:16;;;;;;;8.00;4.70;;;;;;;25.06;55.07;99022.47;5033659;28;20189;-69
2023/08/28 03:20:43;;;;;;;5.70;4.87;;;;;;;24.80;55.65;99030.28;5033788;28;20236;-69
2023/08/28 03:23:10;;;;;;;9.33;4.50;;;;;;;24.60;56.67;99020.59;5024651;28;20186;-69
2023/08/28 03:25:38;;;;;;;13.27;4.33;;;;;;;24.42;57.46;99024.13;5014076;28;20241;-70
2023/08/28 03:28:07;;;;;;;8.43;4.70;;;;;;;24.36;58.04;99019.06;5013837;28;20665;-69
2023/08/28 03:30:34;;;;;;;7.03;4.43;;;;;;;24.29;58.25;99022.19;5013006;28;20281;-70
2023/08/28 03:33:01;;;;;;;5.30;4.57;;;;;;;24.12;59.86;99013.75;4994515;28;20226;-69
2023/08/28 03:35:27;;;;;;;4.77;4.47;;;;;;;24.02;59.66;99007.69;4994336;28;20202;-69
2023/08/28 03:37:54;;;;;;;8.47;4.77;;;;;;;23.92;60.85;99003.22;4994072;28;20253;-69
2023/08/28 03:40:21;;;;;;;5.37;4.57;;;;;;;23.89;61.09;98995.63;4993823;28;20744;-69
2023/08/28 03:42:49;;;;;;;6.87;4.23;;;;;;;23.89;61.46;98994.84;4995162;28;20200;-69
2023/08/28 03:45:15;;;;;;;6.30;4.57;;;;;;;23.90;61.80;98999.16;4993640;28;20252;-69
2023/08/28 03:47:42;;;;;;;8.47;5.30;;;;;;;23.95;61.71;98990.97;4994410;28;20190;-69
2023/08/28 03:50:09;;;;;;;6.60;4.80;;;;;;;23.78;61.29;98999.63;4994144;28;20201;-70
2023/08/28 03:52:36;;;;;;;6.17;5.63;;;;;;;23.56;62.33;98998.56;4993913;28;20661;-70
2023/08/28 03:55:03;;;;;;;7.77;5.97;;;;;;;23.47;62.63;99001.13;4993971;28;20660;-69
2023/08/28 03:57:29;;;;;;;6.10;5.50;;;;;;;23.43;62.72;99001.97;4994071;28;20192;-70
2023/08/28 03:59:57;;;;;;;10.33;6.07;;;;;;;23.31;63.03;99007.81;4993101;28;20259;-69
2023/08/28 04:02:24;;;;;;;11.30;5.83;;;;;;;23.29;63.92;99003.78;5001654;28;20230;-69
2023/08/28 04:04:51;;;;;;;6.20;5.60;;;;;;;23.34;63.48;99001.84;5013110;28;20255;-70
2023/08/28 04:07:23;;;;;;;6.87;6.27;;;;;;;23.52;63.80;99009.19;5020211;28;20282;-69
2023/08/28 04:09:50;;;;;;;8.87;5.83;;;;;;;23.81;63.36;99006.34;5033200;28;20194;-69
2023/08/28 04:12:16;;;;;;;9.73;5.03;;;;;;;24.25;61.65;99018.44;5033041;28;20248;-70
2023/08/28 04:14:43;;;;;;;15.67;5.67;;;;;;;24.85;60.42;99031.00;5032706;28;20250;-70
2023/08/28 04:17:11;;;;;;;11.10;5.07;;;;;;;25.56;57.80;99035.09;5032610;28;20216;-70
2023/08/28 04:19:37;;;;;;;9.20;5.10;;;;;;;26.19;55.02;99041.28;5032484;28;20770;-71
2023/08/28 04:22:05;;;;;;;11.33;5.27;;;;;;;26.78;53.55;99038.22;5032492;28;20681;-70
2023/08/28 04:24:31;;;;;;;5.50;4.83;;;;;;;27.31;51.63;99047.16;5024161;28;20187;-69
2023/08/28 04:26:58;;;;;;;10.07;4.97;;;;;;;27.79;49.88;99042.44;5012744;28;20198;-70
2023/08/28 04:29:25;;;;;;;9.27;5.00;;;;;;;28.12;48.84;99041.72;5012709;28;20639;-70
2023/08/28 04:31:52;;;;;;;6.53;5.43;;;;;;;28.30;48.21;99035.13;5012692;28;20202;-70
2023/08/28 04:34:20;;;;;;;7.93;4.77;;;;;;;28.63;47.56;99040.91;5012999;28;20221;-70
2023/08/28 04:36:47;;;;;;;37.30;6.20;;;;;;;28.98;47.09;99037.75;5011876;28;20201;-71
2023/08/28 04:39:14;;;;;;;6.70;5.13;;;;;;;29.37;44.87;99039.38;5012487;28;20620;-70
2023/08/28 04:41:40;;;;;;;17.47;5.10;;;;;;;29.50;44.86;99038.34;5013030;28;20197;-70
2023/08/28 04:44:07;;;;;;;8.80;5.30;;;;;;;29.69;43.63;99038.75;5012834;28;20272;-70
2023/08/28 04:46:34;;;;;;;22.87;6.30;;;;;;;29.87;43.05;99040.25;5012667;28;20244;-70
2023/08/28 04:49:00;;;;;;;7.73;5.43;;;;;;;30.01;42.81;99038.03;5006671;28;20186;-70
2023/08/28 04:51:28;;;;;;;12.60;5.10;;;;;;;30.19;42.98;99034.06;4992649;28;20257;-70
2023/08/28 04:53:55;;;;;;;44.10;7.87;;;;;;;30.28;43.11;99032.03;4993343;28;20202;-70
2023/08/28 04:56:22;;;;;;;12.90;5.50;;;;;;;30.56;41.93;99038.56;4992916;28;20249;-70
2023/08/28 04:58:48;;;;;;;7.57;4.93;;;;;;;30.89;41.21;99030.31;4992700;28;20195;-70
2023/08/28 05:01:15;;;;;;;8.23;4.60;;;;;;;31.34;39.69;99034.66;4992294;28;20749;-71
2023/08/28 05:03:42;;;;;;;8.63;4.90;;;;;;;31.73;39.27;99044.13;4992394;28;20732;-70
2023/08/28 05:06:08;;;;;;;9.70;5.23;;;;;;;31.81;38.56;99038.53;4992354;28;20663;-70
2023/08/28 05:08:37;;;;;;;20.00;5.43;;;;;;;31.80;39.29;99034.19;5027920;28;20326;-70
2023/08/28 05:11:04;;;;;;;12.43;6.03;;;;;;;32.06;38.83;99042.03;5031919;28;20197;-70
2023/08/28 05:13:31;;;;;;;13.40;5.50;;;;;;;32.36;37.83;99041.38;5010772;28;20190;-69
2023/08/28 05:15:58;;;;;;;10.30;4.87;;;;;;;32.55;37.79;99029.72;5011759;28;20665;-69
2023/08/28 05:18:26;;;;;;;17.50;5.23;;;;;;;32.62;37.33;99027.19;5011775;28;20198;-71
2023/08/28 05:20:52;;;;;;;9.00;4.27;;;;;;;32.70;36.89;99039.94;5012085;28;20244;-70
2023/08/28 05:23:25;;;;;;;10.57;5.17;;;;;;;32.91;36.80;99037.81;5012163;28;20241;-70
2023/08/28 05:25:53;;;;;;;6.03;5.03;;;;;;;33.10;35.98;99040.66;5012153;28;20182;-71
2023/08/28 05:28:19;;;;;;;8.57;4.50;;;;;;;33.37;35.79;99048.06;5011727;28;20198;-70
2023/08/28 05:30:46;;;;;;;9.40;4.40;;;;;;;33.53;35.65;99046.09;5011479;28;20301;-69
2023/08/28 05:33:13;;;;;;;7.60;4.50;;;;;;;33.88;35.39;99046.94;5016085;28;20221;-61
2023/08/28 05:35:40;;;;;;;9.55;5.25;;;;;;;33.93;35.13;99054.94;5009041;28;20654;-60
2023/08/28 05:38:07;;;;;;;28.55;6.45;;;;;;;34.07;34.96;99059.97;5011654;28;20249;-60
2023/08/28 05:40:33;;;;;;;14.65;10.00;;;;;;;34.18;34.67;99055.47;5011952;28;20317;-60
2023/08/28 05:43:02;;;;;;;43.08;22.15;;;;;;;34.26;34.57;99046.19;5010629;28;20194;-60
2023/08/28 05:45:29;;;;;;;59.70;31.35;;;;;;;34.48;34.13;99057.34;5010878;28;20197;-60
2023/08/28 05:47:55;;;;;;;17.45;8.23;;;;;;;34.71;33.64;99058.19;5011470;28;20668;-60
2023/08/28 05:50:22;;;;;;;90.53;37.20;;;;;;;34.84;34.08;99056.06;5008731;28;20201;-61
2023/08/28 05:52:49;;;;;;;20.15;9.45;;;;;;;35.16;32.99;99058.25;5000136;28;20268;-60
2023/08/28 05:55:16;;;;;;;45.33;23.48;;;;;;;35.27;32.99;99058.44;5004769;28;20193;-61
2023/08/28 05:57:42;;;;;;;50.05;25.90;;;;;;;34.93;33.92;99053.88;5009933;28;20284;-60
2023/08/28 06:00:13;;;;;;;42.30;21.60;;;;;;;34.94;34.07;99050.75;5003298;28;20253;-61
2023/08/28 06:02:39;;;;;;;21.98;12.10;;;;;;;35.04;33.53;99057.63;5009564;28;20864;-60
2023/08/28 06:05:07;;;;;;;51.00;24.08;;;;;;;35.37;33.63;99053.13;5006818;28;20198;-64
2023/08/28 06:07:34;;;;;;;35.60;17.73;;;;;;;35.16;33.80;99049.16;5008469;28;20289;-60
2023/08/28 06:10:01;;;;;;;28.02;14.13;;;;;;;35.10;34.04;99050.63;5013228;28;20202;-61
2023/08/28 06:12:27;;;;;;;20.45;10.18;;;;;;;35.48;33.32;99047.78;4988371;28;20288;-62
2023/08/28 06:14:55;;;;;;;9.38;5.72;;;;;;;35.36;32.85;99056.25;4989395;28;20557;-61
2023/08/28 06:17:23;;;;;;;19.65;9.48;;;;;;;35.25;33.67;99056.06;4999538;28;20277;-61
2023/08/28 06:19:50;;;;;;;19.85;9.18;;;;;;;35.17;34.08;99051.56;5007257;28;20201;-65
2023/08/28 06:22:17;;;;;;;7.10;4.55;;;;;;;35.27;33.73;99058.44;4998424;28;20252;-61
2023/08/28 06:24:43;;;;;;;13.88;6.20;;;;;;;35.00;34.90;99048.50;5009704;28;20733;-67
2023/08/28 06:27:10;;;;;;;19.75;9.20;;;;;;;35.10;35.02;99056.16;5012770;28;20221;-65
2023/08/28 06:29:37;;;;;;;18.15;8.35;;;;;;;35.23;34.76;99049.31;5004385;28;20198;-62
2023/08/28 06:32:04;;;;;;;10.02;6.05;;;;;;;35.45;35.15;99042.97;5010632;28;20388;-61
2023/08/28 06:34:32;;;;;;;11.57;5.15;;;;;;;35.56;34.63;99053.00;5016770;28;20193;-61
2023/08/28 06:36:58;;;;;;;4.20;3.90;;;;;;;35.46;34.33;99044.56;5018437;28;20568;-64
2023/08/28 06:39:26;;;;;;;10.93;4.75;;;;;;;35.43;34.13;99039.78;5017223;28;20193;-62
2023/08/28 06:41:52;;;;;;;11.50;4.22;;;;;;;35.49;34.45;99049.34;5022070;28;20249;-61
2023/08/28 06:44:19;;;;;;;24.98;5.57;;;;;;;35.58;34.35;99047.13;5021634;28;20257;-63
2023/08/28 06:46:46;;;;;;;19.92;6.25;;;;;;;35.71;34.99;99041.03;5019833;28;20190;-61
2023/08/28 06:49:13;;;;;;;22.70;5.90;;;;;;;35.77;34.29;99038.75;5019778;28;20201;-62
2023/08/28 06:51:41;;;;;;;7.55;4.85;;;;;;;35.80;33.64;99044.34;5022866;28;20751;-66
2023/08/28 06:54:07;;;;;;;4.82;4.35;;;;;;;35.77;33.48;99033.22;5014174;28;20616;-60
2023/08/28 06:56:34;;;;;;;8.10;5.10;;;;;;;35.70;34.03;99035.84;5018765;28;20195;-61
2023/08/28 06:59:01;;;;;;;5.82;5.20;;;;;;;35.59;33.43;99029.38;5010853;28;20195;-61
2023/08/28 07:01:27;;;;;;;9.27;4.70;;;;;;;35.63;32.15;99032.97;5020830;28;20222;-60
2023/08/28 07:03:54;;;;;;;4.93;4.35;;;;;;;35.41;32.48;99022.78;5019341;28;20261;-65
2023/08/28 07:06:21;;;;;;;21.38;6.10;;;;;;;35.37;32.89;99024.69;5015701;28;20202;-61
2023/08/28 07:08:49;;;;;;;5.28;4.75;;;;;;;35.26;33.29;99023.69;5020622;28;20194;-61
2023/08/28 07:11:15;;;;;;;13.23;4.88;;;;;;;35.15;33.42;99022.72;5009883;28;20260;-62
2023/08/28 07:13:42;;;;;;;5.18;4.43;;;;;;;35.26;32.60;99034.72;5020751;28;20190;-62
2023/08/28 07:16:09;;;;;;;5.00;4.60;;;;;;;35.37;33.00;99024.69;5019102;28;20240;-61
2023/08/28 07:18:35;;;;;;;5.53;4.68;;;;;;;35.31;32.41;99024.19;5022960;28;20228;-60
2023/08/28 07:21:02;;;;;;;7.78;4.35;;;;;;;35.25;32.93;99028.41;5023441;28;20767;-61
2023/08/28 07:23:29;;;;;;;8.68;4.97;;;;;;;35.27;33.31;99025.28;5022208;28;20236;-61
2023/08/28 07:25:58;;;;;;;10.23;4.85;;;;;;;35.19;32.87;99029.09;5021550;28;20190;-61
2023/08/28 07:28:25;;;;;;;5.72;5.03;;;;;;;35.29;32.60;99040.38;5022009;28;20288;-62
2023/08/28 07:30:57;;;;;;;7.90;4.70;;;;;;;35.46;32.48;99042.59;5019647;28;20672;-61
2023/08/28 07:33:24;;;;;;;5.43;4.03;;;;;;;35.65;32.05;99044.47;5023285;28;20317;-60
2023/08/28 07:35:50;;;;;;;26.20;6.13;;;;;;;35.87;31.63;99049.97;5019979;28;20251;-61
2023/08/28 07:38:18;;;;;;;6.93;4.70;;;;;;;35.96;31.89;99052.44;5022265;28;20227;-61
2023/08/28 07:40:47;;;;;;;11.18;4.70;;;;;;;35.96;31.93;99046.91;5021502;28;20208;-61
2023/08/28 07:43:15;;;;;;;9.35;4.97;;;;;;;36.07;31.57;99053.41;5017883;28;20189;-62
2023/08/28 07:45:42;;;;;;;5.35;4.85;;;;;;;36.23;31.57;99040.22;5018317;28;20190;-61
2023/08/28 07:48:08;;;;;;;11.38;5.57;;;;;;;36.15;31.32;99047.59;5010861;28;20226;-61
2023/08/28 07:50:35;;;;;;;8.35;4.88;;;;;;;36.11;31.35;99043.19;4998340;28;20196;-59
2023/08/28 07:53:03;;;;;;;9.52;5.00;;;;;;;36.01;31.16;99050.16;5011211;28;20189;-62
2023/08/28 07:55:30;;;;;;;7.63;5.00;;;;;;;35.55;32.18;99050.63;5019618;28;20186;-61
2023/08/28 07:57:57;;;;;;;6.78;5.07;;;;;;;35.46;32.38;99050.09;5018614;28;20227;-62
2023/08/28 08:00:25;;;;;;;7.90;5.00;;;;;;;35.45;31.85;99054.03;5021932;28;20657;-63
2023/08/28 08:02:53;;;;;;;7.53;4.95;;;;;;;35.30;31.87;99052.19;5020997;28;20194;-63
2023/08/28 08:05:20;;;;;;;9.32;5.07;;;;;;;35.38;31.52;99053.91;5021471;28;20189;-62
2023/08/28 08:07:47;;;;;;;8.18;5.07;;;;;;;35.32;32.27;99049.88;5021076;28;20193;-63
2023/08/28 08:10:14;;;;;;;6.78;4.80;;;;;;;35.37;31.90;99050.34;5028483;28;20641;-62
2023/08/28 08:12:41;;;;;;;11.38;4.75;;;;;;;35.61;31.29;99051.91;5029251;28;20688;-61
2023/08/28 08:15:09;;;;;;;10.27;5.18;;;;;;;35.72;32.03;99044.59;5021467;28;20564;-61
2023/08/28 08:17:37;;;;;;;15.10;5.53;;;;;;;35.63;31.40;99044.84;5017223;28;20233;-61
2023/08/28 08:20:09;;;;;;;16.92;5.50;;;;;;;35.61;31.73;99040.84;5012870;28;20198;-61
2023/08/28 08:22:36;;;;;;;10.85;5.20;;;;;;;35.67;32.14;99036.59;5014592;28;20213;-61
2023/08/28 08:25:04;;;;;;;7.10;5.32;;;;;;;35.86;31.83;99034.56;5032617;28;20201;-61
2023/08/28 08:27:29;;;;;;;5.85;5.22;;;;;;;36.03;30.40;99031.25;5032490;28;20255;-61
2023/08/28 08:29:56;;;;;;;10.23;5.00;;;;;;;35.99;30.78;99032.34;5032321;28;20201;-61
2023/08/28 08:32:23;;;;;;;5.18;4.72;;;;;;;35.90;30.41;99029.06;5032164;28;20232;-61
2023/08/28 08:34:52;;;;;;;6.70;6.03;;;;;;;35.80;30.42;99033.28;5012388;28;20198;-61
2023/08/28 08:37:18;;;;;;;9.80;5.75;;;;;;;35.79;30.95;99015.09;5012516;28;20202;-61
2023/08/28 08:39:45;;;;;;;5.47;4.95;;;;;;;35.85;30.63;99012.81;5012402;28;20244;-62
2023/08/28 08:42:12;;;;;;;19.23;5.80;;;;;;;36.07;31.02;99018.25;5024505;28;20304;-62
2023/08/28 08:44:40;;;;;;;9.65;5.10;;;;;;;36.21;30.07;99014.88;5031903;28;20254;-62
2023/08/28 08:47:07;;;;;;;7.75;5.30;;;;;;;36.22;29.91;99005.44;5016195;28;20285;-61
2023/08/28 08:49:34;;;;;;;5.28;4.80;;;;;;;36.14;30.21;99009.25;5012351;28;20198;-61
2023/08/28 08:52:07;;;;;;;7.50;4.90;;;;;;;35.81;30.39;99001.69;5012073;28;20670;-61
2023/08/28 08:54:39;;;;;;;11.02;4.90;;;;;;;35.92;30.63;99007.34;5014517;28;20666;-66
2023/08/28 08:57:18;;;;;;;8.60;5.53;;;;;;;36.11;30.20;98993.38;5032282;28;20186;-61
2023/08/28 08:59:45;;;;;;;7.03;5.05;;;;;;;35.96;30.27;98997.94;5031600;28;20190;-61
2023/08/28 09:02:12;;;;;;;5.50;5.05;;;;;;;35.82;30.66;98996.97;5031890;28;20221;-62
2023/08/28 09:04:42;;;;;;;6.70;5.32;;;;;;;35.89;29.56;98983.25;5031617;28;20193;-60
2023/08/28 09:07:11;;;;;;;6.80;4.82;;;;;;;36.00;29.73;98986.91;5025788;28;20252;-61
2023/08/28 09:09:39;;;;;;;6.15;4.95;;;;;;;35.82;29.90;98980.38;5011977;28;20229;-61
2023/08/28 09:12:07;;;;;;;7.38;5.13;;;;;;;35.37;30.70;98981.28;5011238;28;20202;-61
2023/08/28 09:14:34;;;;;;;7.95;5.00;;;;;;;35.55;30.18;98976.81;5011729;28;20646;-61
2023/08/28 09:17:01;;;;;;;7.15;4.68;;;;;;;35.71;29.71;98979.38;5011708;28;20252;-61
2023/08/28 09:19:28;;;;;;;6.07;4.43;;;;;;;35.00;31.13;98966.47;5011533;28;20606;-61
2023/08/28 09:21:54;;;;;;;8.18;4.65;;;;;;;35.37;30.00;98964.72;5010711;28;20281;-61
2023/08/28 09:24:26;;;;;;;6.32;4.47;;;;;;;35.65;30.19;98964.31;5011900;28;20194;-60
2023/08/28 09:26:53;;;;;;;9.40;4.97;;;;;;;35.62;29.71;98959.53;5012053;28;20198;-61
2023/08/28 09:29:24;;;;;;;6.82;4.60;;;;;;;35.69;29.95;98948.56;5011501;28;20673;-61
2023/08/28 09:31:52;;;;;;;6.35;4.47;;;;;;;35.87;29.62;98950.44;5013151;28;20650;-61
2023/08/28 09:34:20;;;;;;;10.25;4.50;;;;;;;35.78;30.14;98943.59;5031357;28;20280;-62
2023/08/28 09:36:47;;;;;;;7.57;4.68;;;;;;;35.96;29.55;98941.81;5003776;28;20288;-61
2023/08/28 09:39:14;;;;;;;4.97;4.57;;;;;;;35.45;30.05;98933.25;5009222;28;20201;-62
2023/08/28 09:41:44;;;;;;;12.02;4.88;;;;;;;35.57;30.03;98934.97;5009866;28;20292;-60
2023/08/28 09:44:12;;;;;;;5.47;4.53;;;;;;;35.65;30.30;98934.72;5010291;28;20636;-60
2023/08/28 09:46:38;;;;;;;8.00;4.28;;;;;;;35.55;30.96;98942.84;5007527;28;20190;-64
2023/08/28 09:49:05;;;;;;;11.60;4.72;;;;;;;35.58;30.26;98925.50;5008301;28;20194;-59
2023/08/28 09:51:40;;;;;;;6.07;5.15;;;;;;;35.69;30.23;98924.47;5007754;28;20194;-66
2023/08/28 09:54:07;;;;;;;11.65;5.75;;;;;;;35.79;30.26;98910.03;5006601;28;20279;-60
2023/08/28 09:56:34;;;;;;;10.35;5.47;;;;;;;36.03;30.00;98917.84;5006987;28;20202;-61
2023/08/28 09:59:03;;;;;;;5.50;5.07;;;;;;;36.32;29.20;98916.19;5012369;28;20664;-63
2023/08/28 10:01:32;;;;;;;8.00;5.15;;;;;;;36.37;29.00;98921.38;5011231;28;20241;-62
2023/08/28 10:04:00;;;;;;;8.98;4.45;;;;;;;36.50;29.45;98917.19;5011702;28;20277;-60
2023/08/28 10:06:28;;;;;;;8.40;5.40;;;;;;;36.58;29.10;98916.06;5011574;28;20647;-62
2023/08/28 10:08:59;;;;;;;7.53;4.40;;;;;;;36.67;28.58;98916.56;5010727;28;20260;-60
2023/08/28 10:11:33;;;;;;;7.75;4.72;;;;;;;36.56;28.71;98916.47;5011458;28;20224;-60
2023/08/28 10:14:04;;;;;;;6.18;4.30;;;;;;;36.79;28.37;98910.75;5011745;28;20187;-59
2023/08/28 10:16:33;;;;;;;6.13;4.50;;;;;;;36.92;28.59;98906.50;5011756;28;20273;-62
2023/08/28 10:19:10;;;;;;;5.53;4.38;;;;;;;37.09;28.29;98905.84;5013228;28;20289;-60
2023/08/28 10:21:39;;;;;;;12.13;4.65;;;;;;;37.16;28.34;98911.47;5013247;28;20304;-60
2023/08/28 10:24:06;;;;;;;7.00;4.90;;;;;;;37.22;27.89;98899.63;5013258;28;20187;-64
2023/08/28 10:26:35;;;;;;;9.27;4.25;;;;;;;37.40;28.04;98893.41;5012759;28;20281;-60
2023/08/28 10:29:04;;;;;;;5.75;3.97;;;;;;;37.44;27.51;98891.44;5013306;28;20188;-60
2023/08/28 10:31:31;;;;;;;5.10;4.30;;;;;;;37.40;28.04;98885.88;5013046;28;20301;-63
2023/08/28 10:33:59;;;;;;;7.25;4.43;;;;;;;37.14;27.87;98886.09;5012437;28;20230;-61
2023/08/28 10:36:27;;;;;;;4.75;3.90;;;;;;;37.13;27.79;98890.88;5012547;28;20248;-60
2023/08/28 10:38:55;;;;;;;5.47;4.25;;;;;;;37.22;27.41;98882.19;5012323;28;20256;-61
2023/08/28 10:41:22;;;;;;;3.92;3.63;;;;;;;37.04;27.37;98887.59;5012992;28;20218;-62
2023/08/28 10:43:50;;;;;;;6.25;4.00;;;;;;;36.80;27.73;98881.88;5012851;28;20202;-61
2023/08/28 10:46:19;;;;;;;4.75;3.55;;;;;;;36.80;27.37;98881.88;5014051;28;20256;-61
2023/08/28 10:48:46;;;;;;;3.90;3.55;;;;;;;36.97;27.40;98870.94;5012360;28;20209;-61
2023/08/28 10:51:14;;;;;;;7.15;3.67;;;;;;;36.99;27.06;98871.34;5012934;28;20288;-63
2023/08/28 10:53:41;;;;;;;5.03;3.33;;;;;;;36.89;27.12;98868.50;5012590;28;20223;-62
2023/08/28 10:56:07;;;;;;;3.83;2.95;;;;;;;36.62;26.42;98869.84;5011165;28;20198;-67
2023/08/28 10:58:38;;;;;;;6.10;3.80;;;;;;;36.66;26.63;98865.13;5011188;28;20588;-61
2023/08/28 11:01:12;;;;;;;3.78;3.55;;;;;;;36.54;26.74;98859.91;5013097;28;20256;-61
2023/08/28 11:03:57;;;;;;;4.30;3.90;;;;;;;36.17;27.45;98857.13;5012808;28;20223;-61
2023/08/28 11:06:43;;;;;;;6.90;3.53;;;;;;;36.47;27.37;98857.06;5010834;28;20631;-62
2023/08/28 11:09:40;;;;;;;5.88;3.85;;;;;;;36.41;26.31;98858.56;4993827;28;20224;-61
2023/08/28 11:12:27;;;;;;;5.28;3.70;;;;;;;36.50;27.87;98850.75;4960122;28;20199;-61
2023/08/28 11:15:02;;;;;;;6.10;4.10;;;;;;;36.44;27.52;98855.03;4987939;28;20201;-61
2023/08/28 11:17:34;;;;;;;3.70;3.13;;;;;;;36.53;27.15;98841.66;5002875;28;20703;-62
2023/08/28 11:20:03;;;;;;;6.47;4.28;;;;;;;36.66;27.72;98837.44;5019558;28;20268;-62
2023/08/28 11:22:30;;;;;;;5.22;3.70;;;;;;;36.77;27.39;98841.91;5020907;28;20254;-59
2023/08/28 11:24:57;;;;;;;3.40;3.17;;;;;;;36.87;26.67;98837.63;4994195;28;20187;-62
2023/08/28 11:27:35;;;;;;;7.70;2.97;;;;;;;36.87;25.35;98843.94;5007751;28;20194;-59
2023/08/28 11:30:06;;;;;;;4.15;3.40;;;;;;;36.89;25.21;98832.50;5000511;28;20248;-59
2023/08/28 11:32:33;;;;;;;5.68;3.33;;;;;;;37.02;25.43;98836.53;5008072;28;20276;-63
2023/08/28 11:35:04;;;;;;;4.35;3.33;;;;;;;36.89;25.18;98818.66;4999084;28;20262;-59